Los Posos, Valles Caldera, New Mexico Weather observations

Data are for 10 minute period ending at time listed.
 Day   Time   Solar   Ave.   Ave.  Ave.  Vector  Max.   Baro.   Total    
  of    of     Rad.   Air    Rel.  Wind   Wind   Wind  Press.  Precip.   
Year   Day            Temp.  Hum.  Speed  Dir.   Gust                    
2015   (MST)  Kw/m2    F      %     mph   deg.    mph    mb.     in.     
-------------------------------------------------------------------------
 208    0:30   0.00   51.0    95    1.1   300     3.6   99999.0    0.00 
 208    0:40   0.00   51.0    95    0.3   345     2.4   99999.0    0.00 
 208    0:50   0.00   50.7    95    0.5   282     3.0   99999.0    0.00 
 208    1:00   0.00   50.4    95    1.2   285     3.6   99999.0    0.00 
 208    1:10   0.00   50.4    95    2.2   280     4.2   99999.0    0.00 
 208    1:20   0.00   50.4    95    0.4    88     2.4   99999.0    0.00 
 208    1:30   0.00   49.9    95    0.7   309     3.0   99999.0    0.00 
 208    1:40   0.00   49.6    95    0.0     0     0.0   99999.0    0.00 
 208    1:50   0.00   49.2    95    0.0   257     1.2   99999.0    0.00 
 208    2:00   0.00   48.4    95    2.0   271     3.6   99999.0    0.00 
 208    2:10   0.00   47.9    95    1.1   229     3.6   99999.0    0.00 
 208    2:20   0.00   47.2    95    1.1   238     3.0   99999.0    0.00 
 208    2:30   0.00   46.6    96    1.0   181     3.0   99999.0    0.00 
 208    2:40   0.00   46.7    96    0.2   184     1.8   99999.0    0.00 
 208    2:50   0.00   46.1    96    0.1   288     1.2   99999.0    0.00 
 208    3:00   0.00   45.6    96    0.6   254     2.4   99999.0    0.00 
 208    3:10   0.00   45.5    96    0.0     0     0.0   99999.0    0.00 
 208    3:20   0.00   45.4    96    1.0   259     2.4   99999.0    0.00 
 208    3:30   0.00   44.7    96    0.5   316     2.4   99999.0    0.00 
 208    3:40   0.00   44.7    96    1.5   244     2.4   99999.0    0.00 
 208    3:50   0.00   45.1    96    1.9   246     3.0   99999.0    0.00 
 208    4:00   0.00   45.3    96    0.9   107     2.4   99999.0    0.00 
 208    4:10   0.00   44.6    96    0.0     0     0.0   99999.0    0.00 
 208    4:20   0.00   44.3    96    0.4   282     1.8   99999.0    0.00 
 208    4:30   0.00   44.4    96    0.0     0     0.0   99999.0    0.00 
 208    4:40   0.00   44.0    96    0.8   301     2.4   99999.0    0.00 
 208    4:50   0.00   43.9    96    0.6   277     3.6   99999.0    0.00 
 208    5:00   0.00   43.8    96    1.3   248     3.0   99999.0    0.00 
 208    5:10   0.00   43.3    96    0.5   286     1.8   99999.0    0.00 
 208    5:20   0.00   43.3    96    0.2   269     1.8   99999.0    0.00 
 208    5:30   0.01   43.7    96    1.1   292     3.0   99999.0    0.00 
 208    5:40   0.02   44.0    96    1.9   273     3.0   99999.0    0.00 
 208    5:50   0.05   44.9    96    1.4   247     2.4   99999.0    0.00 
 208    6:00   0.11   46.2    96    0.4   232     1.8   99999.0    0.00 
 208    6:10   0.11   48.8    97    0.8    34     2.4   99999.0    0.00 
 208    6:20   0.17   49.8    97    0.0   337     1.2   99999.0    0.00 
 208    6:30   0.19   52.5    96    0.0   131     1.2   99999.0    0.00 
 208    6:40   0.24   53.3    92    0.1   148     1.2   99999.0    0.00 
 208    6:50   0.27   56.3    87    1.4    56     3.0   99999.0    0.00 
 208    7:00   0.22   56.9    84    0.1    32     1.2   99999.0    0.00 
 208    7:10   0.33   58.0    80    0.0   304     1.2   99999.0    0.00 
 208    7:20   0.38   59.8    77    0.0     0     0.0   99999.0    0.00 
 208    7:30   0.40   63.1    71    0.1    71     1.2   99999.0    0.00 
 208    7:40   0.43   63.7    68    0.5   128     3.0   99999.0    0.00 
 208    7:50   0.46   64.0    64    0.5   144     3.6   99999.0    0.00 
 208    8:00   0.49   64.2    65    2.1   188     4.2   99999.0    0.00 
 208    8:10   0.53   63.6    65    4.2   188     7.2   99999.0    0.00 
 208    8:20   0.58   63.9    64    4.3   179     8.4   99999.0    0.00 
 208    8:30   0.59   64.8    60    4.1   189     8.4   99999.0    0.00 
 208    8:40   0.61   64.6    58    6.0   164     9.6   99999.0    0.00 
 208    8:50   0.64   64.2    58    6.9   167    14.3   99999.0    0.00 
 208    9:00   0.66   64.9    57    5.9   162    11.9   99999.0    0.00 
 208    9:10   0.69   65.5    54    6.6   176    12.5   99999.0    0.00 
 208    9:20   0.71   66.1    52    5.6   195    11.3   99999.0    0.00 
 208    9:30   0.74   66.2    53    6.7   191    12.5   99999.0    0.00 
 208    9:40   0.76   66.4    52    7.1   182    11.9   99999.0    0.00 
 208    9:50   0.78   66.5    51    7.6   167    14.3   99999.0    0.00 
 208   10:00   0.80   66.8    51    7.4   171    13.7   99999.0    0.00 
 208   10:10   0.81   67.5    50    5.5   176    10.2   99999.0    0.00 
 208   10:20   0.83   67.8    49    6.2   176    11.9   99999.0    0.00 
 208   10:30   0.85   69.3    48    3.6   192     9.6   99999.0    0.00 
 208   10:40   0.87   68.8    48    5.8   177    11.3   99999.0    0.00 
 208   10:50   0.89   69.2    48    4.6   182     9.6   99999.0    0.00 
 208   11:00   0.85   69.3    48    6.5   187    11.3   99999.0    0.00 
 208   11:10   0.96   69.1    50    6.2   146    11.9   99999.0    0.00 
 208   11:20   0.58   70.1    48    4.4   149     9.0   99999.0    0.00 
 208   11:30   0.92   68.9    48    7.3   177    13.1   99999.0    0.00 
 208   11:40   0.64   69.3    55    5.1   184     9.6   99999.0    0.00 
 208   11:50   0.33   67.8    56    6.0   198    10.8   99999.0    0.00 
 208   12:00   0.82   67.3    54    7.6   195    14.3   99999.0    0.00 
 208   12:10   1.01   69.4    49    7.2   194    14.9   99999.0    0.00 
 208   12:20   0.94   69.6    47    7.2   196    14.9   99999.0    0.00 
 208   12:30   0.93   70.3    46    6.5   215    12.5   99999.0    0.00 
 208   12:40   0.80   70.1    45    7.6   197    14.3   99999.0    0.00 
 208   12:50   0.25   67.7    47    7.9   205    15.5   99999.0    0.00 
 208   13:00   0.44   67.4    48    7.2   190    14.3   99999.0    0.00 
 208   13:10   0.55   67.8    48    7.1   182    13.1   99999.0    0.00 
 208   13:20   0.72   69.5    47    5.2   218    10.2   99999.0    0.00 
 208   13:30   0.65   70.9    46    4.5   198    11.3   99999.0    0.00 
 208   13:40   0.42   69.7    46    3.7   100     8.4   99999.0    0.00 
 208   13:50   0.58   70.9    46    3.0   205    10.8   99999.0    0.00 
 208   14:00   0.73   70.5    44    7.6   238    14.9   99999.0    0.00 
 208   14:10   0.54   70.5    44    4.8   212    12.5   99999.0    0.00 
 208   14:20   0.68   72.3    41    4.7   262    14.3   99999.0    0.00 
 208   14:30   0.57   71.0    39    6.2   235    13.1   99999.0    0.00 
 208   14:40   0.93   72.9    34    5.3   284    12.5   99999.0    0.00 
 208   14:50   0.86   72.9    33    7.4   248    11.9   99999.0    0.00 
 208   15:00   0.85   73.5    33    6.6   293    14.3   99999.0    0.00 
 208   15:10   0.77   73.7    32    7.9   284    14.3   99999.0    0.00 
 208   15:20   0.74   74.1    30    6.9   292    14.3   99999.0    0.00 
 208   15:30   0.71   75.1    30    5.5   314    11.9   99999.0    0.00 
 208   15:40   0.69   74.7    29    6.7   269    14.9   99999.0    0.00 
 208   15:50   0.67   74.2    28    6.1   280    12.5   99999.0    0.00 
 208   16:00   0.43   73.5    29    7.4   271    13.7   99999.0    0.00 
 208   16:10   0.35   71.7    30    6.1   285    11.9   99999.0    0.00 
 208   16:20   0.20   70.7    31    6.0   261    12.5   99999.0    0.00 
 208   16:30   0.56   73.2    30    4.5   249    10.2   99999.0    0.00 
 208   16:40   0.21   72.3    30    6.0   282    11.9   99999.0    0.00 
 208   16:50   0.47   72.6    30    6.7   255    11.9   99999.0    0.00 
 208   17:00   0.43   73.5    28    6.2   247    12.5   99999.0    0.00 
 208   17:10   0.40   74.3    28    5.0   247    11.9   99999.0    0.00 
 208   17:20   0.36   74.2    27    4.3   238    11.9   99999.0    0.00 
 208   17:30   0.33   74.0    28    3.9   245     9.6   99999.0    0.00 
 208   17:40   0.29   74.6    27    4.6   219    11.9   99999.0    0.00 
 208   17:50   0.26   72.7    28    7.0   236    11.3   99999.0    0.00 
 208   18:00   0.24   72.6    29    6.0   256    11.3   99999.0    0.00 
 208   18:10   0.21   72.2    28    6.4   242    12.5   99999.0    0.00 
 208   18:20   0.19   71.7    28    5.8   240    12.5   99999.0    0.00 
 208   18:30   0.16   71.4    30    5.0   229    13.7   99999.0    0.00 
 208   18:40   0.12   70.8    30    4.1   225     9.6   99999.0    0.00 
 208   18:50   0.05   69.4    31    3.3   248     8.4   99999.0    0.00 
 208   19:00   0.02   68.4    33    2.5   214     4.2   99999.0    0.00 
 208   19:10   0.01   65.6    44    2.6   224     4.2   99999.0    0.00 
 208   19:20   0.01   62.2    54    2.8   222     4.2   99999.0    0.00 
 208   19:30   0.00   59.8    64    3.1   226     4.2   99999.0    0.00 
 208   19:40   0.00   58.8    66    2.8   220     3.6   99999.0    0.00 
 208   19:50   0.00   58.4    67    1.2   272     3.0   99999.0    0.00 
 208   20:00   0.00   58.2    69    0.2   285     1.8   99999.0    0.00 
 208   20:10   0.00   58.1    73    0.9   235     2.4   99999.0    0.00 
 208   20:20   0.00   57.6    76    1.4   229     2.4   99999.0    0.00 
 208   20:30   0.00   57.4    71    0.0     0     0.0   99999.0    0.00 
 208   20:40   0.00   57.1    71    0.1   235     1.2   99999.0    0.00 
 208   20:50   0.00   56.2    72    0.0     0     0.0   99999.0    0.00 
 208   21:00   0.00   55.7    70    0.0     0     0.0   99999.0    0.00 
 208   21:10   0.00   54.7    75    0.0   240     1.2   99999.0    0.00 
 208   21:20   0.00   53.9    76    0.1     8     1.2   99999.0    0.00 
 208   21:30   0.00   53.6    77    1.4   237     3.0   99999.0    0.00 
 208   21:40   0.00   53.2    76    1.3   233     2.4   99999.0    0.00 
 208   21:50   0.00   52.6    78    0.8   231     2.4   99999.0    0.00 
 208   22:00   0.00   52.1    79    0.0   218     1.2   99999.0    0.00 
 208   22:10   0.00   51.5    79    0.9   242     2.4   99999.0    0.00 
 208   22:20   0.00   50.7    81    1.8   237     2.4   99999.0    0.00 
 208   22:30   0.00   50.3    82    1.3   236     2.4   99999.0    0.00 
 208   22:40   0.00   49.8    82    0.2   253     1.8   99999.0    0.00 
 208   22:50   0.00   49.4    84    0.9   243     2.4   99999.0    0.00 
 208   23:00   0.00   49.3    81    2.3   242     3.6   99999.0    0.00 
 208   23:10   0.00   49.3    79    0.5   217     2.4   99999.0    0.00 
 208   23:20   0.00   48.8    82    1.2   264     3.0   99999.0    0.00 
 208   23:30   0.00   48.4    84    0.7   241     3.0   99999.0    0.00 
 208   23:40   0.00   49.4    80    1.1   220     3.0   99999.0    0.00 
 208   23:50   0.00   49.7    78    0.9   140     3.0   99999.0    0.00 
 209    0:00   0.00   48.7    80    2.1   338     4.2   99999.0    0.00 
 209    0:10   0.00   47.8    83    1.1   260     3.0   99999.0    0.00 
 209    0:20   0.00   48.0    83    2.1   247     3.0   99999.0    0.00 

Return to Los Posos, Valles Caldera graphs page.


Western Regional Climate Center,wrcc@dri.edu